sensor_id;sensor_type;location;lat;lon;timestamp;P1;durP1;ratioP1;P2;durP2;ratioP2
54460;SDS011;40371;49.414;11.010;2023-04-29T00:01:50;3.23;;;2.93;;
54460;SDS011;40371;49.414;11.010;2023-04-29T00:04:16;3.10;;;2.90;;
54460;SDS011;40371;49.414;11.010;2023-04-29T00:06:41;3.33;;;2.93;;
54460;SDS011;40371;49.414;11.010;2023-04-29T00:09:07;3.67;;;3.37;;
54460;SDS011;40371;49.414;11.010;2023-04-29T00:11:33;5.10;;;3.07;;
54460;SDS011;40371;49.414;11.010;2023-04-29T00:13:58;3.17;;;2.87;;
54460;SDS011;40371;49.414;11.010;2023-04-29T00:16:24;3.10;;;2.80;;
54460;SDS011;40371;49.414;11.010;2023-04-29T00:18:50;3.10;;;2.90;;
54460;SDS011;40371;49.414;11.010;2023-04-29T00:21:15;2.87;;;2.67;;
54460;SDS011;40371;49.414;11.010;2023-04-29T00:23:41;3.00;;;2.80;;
54460;SDS011;40371;49.414;11.010;2023-04-29T00:26:06;2.60;;;2.40;;
54460;SDS011;40371;49.414;11.010;2023-04-29T00:28:32;2.57;;;2.37;;
54460;SDS011;40371;49.414;11.010;2023-04-29T00:30:57;2.87;;;2.67;;
54460;SDS011;40371;49.414;11.010;2023-04-29T00:33:23;2.63;;;2.43;;
54460;SDS011;40371;49.414;11.010;2023-04-29T00:35:49;2.30;;;2.20;;
54460;SDS011;40371;49.414;11.010;2023-04-29T00:38:15;2.27;;;2.07;;
54460;SDS011;40371;49.414;11.010;2023-04-29T00:40:41;2.93;;;2.73;;
54460;SDS011;40371;49.414;11.010;2023-04-29T00:43:07;3.43;;;2.63;;
54460;SDS011;40371;49.414;11.010;2023-04-29T00:45:33;2.63;;;2.47;;
54460;SDS011;40371;49.414;11.010;2023-04-29T00:47:58;2.47;;;2.27;;
54460;SDS011;40371;49.414;11.010;2023-04-29T00:50:24;2.83;;;2.63;;
54460;SDS011;40371;49.414;11.010;2023-04-29T00:52:50;4.13;;;2.73;;
54460;SDS011;40371;49.414;11.010;2023-04-29T00:55:16;2.87;;;2.67;;
54460;SDS011;40371;49.414;11.010;2023-04-29T00:57:42;3.20;;;2.40;;
54460;SDS011;40371;49.414;11.010;2023-04-29T01:00:12;2.70;;;2.50;;
54460;SDS011;40371;49.414;11.010;2023-04-29T01:02:39;2.93;;;2.73;;
54460;SDS011;40371;49.414;11.010;2023-04-29T01:05:05;2.87;;;2.67;;
54460;SDS011;40371;49.414;11.010;2023-04-29T01:10:09;2.70;;;2.50;;
54460;SDS011;40371;49.414;11.010;2023-04-29T01:12:45;2.70;;;2.50;;
54460;SDS011;40371;49.414;11.010;2023-04-29T01:15:29;2.40;;;2.30;;
54460;SDS011;40371;49.414;11.010;2023-04-29T01:18:04;3.10;;;2.80;;
54460;SDS011;40371;49.414;11.010;2023-04-29T01:20:36;3.00;;;2.73;;
54460;SDS011;40371;49.414;11.010;2023-04-29T01:23:02;3.20;;;2.90;;
54460;SDS011;40371;49.414;11.010;2023-04-29T01:25:28;2.77;;;2.50;;
54460;SDS011;40371;49.414;11.010;2023-04-29T01:31:17;3.20;;;2.83;;
54460;SDS011;40371;49.414;11.010;2023-04-29T01:34:04;2.43;;;2.33;;
54460;SDS011;40371;49.414;11.010;2023-04-29T01:42:17;2.37;;;2.23;;
54460;SDS011;40371;49.414;11.010;2023-04-29T01:44:50;2.40;;;2.20;;
54460;SDS011;40371;49.414;11.010;2023-04-29T01:47:19;2.70;;;2.50;;
54460;SDS011;40371;49.414;11.010;2023-04-29T01:49:49;2.40;;;2.20;;
54460;SDS011;40371;49.414;11.010;2023-04-29T01:52:15;2.70;;;2.50;;
54460;SDS011;40371;49.414;11.010;2023-04-29T01:54:48;2.87;;;2.50;;
54460;SDS011;40371;49.414;11.010;2023-04-29T01:57:16;3.40;;;2.83;;
54460;SDS011;40371;49.414;11.010;2023-04-29T01:59:52;3.00;;;2.70;;
54460;SDS011;40371;49.414;11.010;2023-04-29T02:02:29;2.60;;;2.40;;
54460;SDS011;40371;49.414;11.010;2023-04-29T02:05:03;2.83;;;2.60;;
54460;SDS011;40371;49.414;11.010;2023-04-29T02:07:28;3.40;;;2.67;;
54460;SDS011;40371;49.414;11.010;2023-04-29T02:09:55;2.70;;;2.33;;
54460;SDS011;40371;49.414;11.010;2023-04-29T02:12:21;3.17;;;2.40;;
54460;SDS011;40371;49.414;11.010;2023-04-29T02:14:50;3.17;;;2.27;;
54460;SDS011;40371;49.414;11.010;2023-04-29T02:17:17;2.70;;;2.50;;
54460;SDS011;40371;49.414;11.010;2023-04-29T02:19:42;2.20;;;2.10;;
54460;SDS011;40371;49.414;11.010;2023-04-29T02:22:08;3.43;;;2.60;;
54460;SDS011;40371;49.414;11.010;2023-04-29T02:24:36;3.17;;;2.43;;
54460;SDS011;40371;49.414;11.010;2023-04-29T02:27:05;2.80;;;2.60;;
54460;SDS011;40371;49.414;11.010;2023-04-29T02:29:31;2.93;;;2.73;;
54460;SDS011;40371;49.414;11.010;2023-04-29T02:31:57;2.67;;;2.47;;
54460;SDS011;40371;49.414;11.010;2023-04-29T02:34:23;2.83;;;2.63;;
54460;SDS011;40371;49.414;11.010;2023-04-29T02:36:48;3.03;;;2.73;;
54460;SDS011;40371;49.414;11.010;2023-04-29T02:39:14;2.93;;;2.73;;
54460;SDS011;40371;49.414;11.010;2023-04-29T02:41:40;3.13;;;2.87;;
54460;SDS011;40371;49.414;11.010;2023-04-29T02:44:09;3.03;;;2.83;;
54460;SDS011;40371;49.414;11.010;2023-04-29T02:46:35;3.30;;;3.10;;
54460;SDS011;40371;49.414;11.010;2023-04-29T02:49:01;3.00;;;2.80;;
54460;SDS011;40371;49.414;11.010;2023-04-29T02:51:28;3.37;;;3.17;;
54460;SDS011;40371;49.414;11.010;2023-04-29T02:53:54;3.53;;;3.03;;
54460;SDS011;40371;49.414;11.010;2023-04-29T02:56:20;3.10;;;2.90;;
54460;SDS011;40371;49.414;11.010;2023-04-29T02:58:47;3.00;;;2.80;;
54460;SDS011;40371;49.414;11.010;2023-04-29T03:01:13;3.13;;;2.93;;
54460;SDS011;40371;49.414;11.010;2023-04-29T03:03:38;3.40;;;3.07;;
54460;SDS011;40371;49.414;11.010;2023-04-29T03:06:04;3.30;;;3.00;;
54460;SDS011;40371;49.414;11.010;2023-04-29T03:08:30;3.10;;;2.90;;
54460;SDS011;40371;49.414;11.010;2023-04-29T03:10:55;3.40;;;3.20;;
54460;SDS011;40371;49.414;11.010;2023-04-29T03:13:22;3.40;;;3.10;;
54460;SDS011;40371;49.414;11.010;2023-04-29T03:15:47;3.37;;;3.17;;
54460;SDS011;40371;49.414;11.010;2023-04-29T03:18:13;3.43;;;3.13;;
54460;SDS011;40371;49.414;11.010;2023-04-29T03:20:39;4.40;;;4.00;;
54460;SDS011;40371;49.414;11.010;2023-04-29T03:23:05;3.50;;;3.30;;
54460;SDS011;40371;49.414;11.010;2023-04-29T03:25:30;3.90;;;3.60;;
54460;SDS011;40371;49.414;11.010;2023-04-29T03:27:56;4.17;;;3.13;;
54460;SDS011;40371;49.414;11.010;2023-04-29T03:30:21;3.63;;;3.33;;
54460;SDS011;40371;49.414;11.010;2023-04-29T03:32:50;3.33;;;3.13;;
54460;SDS011;40371;49.414;11.010;2023-04-29T03:35:16;3.17;;;2.97;;
54460;SDS011;40371;49.414;11.010;2023-04-29T03:37:55;4.43;;;3.10;;
54460;SDS011;40371;49.414;11.010;2023-04-29T03:40:26;3.60;;;2.80;;
54460;SDS011;40371;49.414;11.010;2023-04-29T03:42:51;3.33;;;3.13;;
54460;SDS011;40371;49.414;11.010;2023-04-29T03:45:18;3.30;;;3.10;;
54460;SDS011;40371;49.414;11.010;2023-04-29T03:47:43;3.50;;;3.20;;
54460;SDS011;40371;49.414;11.010;2023-04-29T03:50:09;4.03;;;3.73;;
54460;SDS011;40371;49.414;11.010;2023-04-29T03:52:35;3.27;;;2.97;;
54460;SDS011;40371;49.414;11.010;2023-04-29T03:55:07;3.63;;;3.20;;
54460;SDS011;40371;49.414;11.010;2023-04-29T03:57:33;3.20;;;3.00;;
54460;SDS011;40371;49.414;11.010;2023-04-29T03:59:59;3.60;;;3.30;;
54460;SDS011;40371;49.414;11.010;2023-04-29T04:02:25;3.63;;;3.43;;
54460;SDS011;40371;49.414;11.010;2023-04-29T04:04:50;3.40;;;3.20;;
54460;SDS011;40371;49.414;11.010;2023-04-29T04:07:16;4.50;;;3.87;;
54460;SDS011;40371;49.414;11.010;2023-04-29T04:10:02;3.87;;;3.67;;
54460;SDS011;40371;49.414;11.010;2023-04-29T04:12:28;3.57;;;3.27;;
54460;SDS011;40371;49.414;11.010;2023-04-29T04:14:54;3.97;;;3.47;;
54460;SDS011;40371;49.414;11.010;2023-04-29T04:17:21;3.57;;;3.27;;
54460;SDS011;40371;49.414;11.010;2023-04-29T04:19:46;4.07;;;3.70;;
54460;SDS011;40371;49.414;11.010;2023-04-29T04:22:12;3.73;;;3.47;;
54460;SDS011;40371;49.414;11.010;2023-04-29T04:24:42;3.93;;;3.50;;
54460;SDS011;40371;49.414;11.010;2023-04-29T04:27:08;3.63;;;3.33;;
54460;SDS011;40371;49.414;11.010;2023-04-29T04:29:39;4.00;;;3.70;;
54460;SDS011;40371;49.414;11.010;2023-04-29T04:32:09;3.83;;;3.37;;
54460;SDS011;40371;49.414;11.010;2023-04-29T04:34:36;4.23;;;3.93;;
54460;SDS011;40371;49.414;11.010;2023-04-29T04:37:04;4.00;;;3.70;;
54460;SDS011;40371;49.414;11.010;2023-04-29T04:39:31;3.87;;;3.53;;
54460;SDS011;40371;49.414;11.010;2023-04-29T04:41:57;3.80;;;3.50;;
54460;SDS011;40371;49.414;11.010;2023-04-29T04:44:23;3.50;;;3.30;;
54460;SDS011;40371;49.414;11.010;2023-04-29T04:46:56;3.73;;;3.20;;
54460;SDS011;40371;49.414;11.010;2023-04-29T04:49:42;3.90;;;3.50;;
54460;SDS011;40371;49.414;11.010;2023-04-29T04:52:08;4.37;;;4.00;;
54460;SDS011;40371;49.414;11.010;2023-04-29T04:54:34;3.57;;;3.37;;
54460;SDS011;40371;49.414;11.010;2023-04-29T04:57:06;3.50;;;3.30;;
54460;SDS011;40371;49.414;11.010;2023-04-29T04:59:32;4.53;;;4.13;;
54460;SDS011;40371;49.414;11.010;2023-04-29T05:01:58;4.67;;;4.37;;
54460;SDS011;40371;49.414;11.010;2023-04-29T05:04:24;5.20;;;4.30;;
54460;SDS011;40371;49.414;11.010;2023-04-29T05:06:49;5.23;;;4.63;;
54460;SDS011;40371;49.414;11.010;2023-04-29T05:09:19;4.83;;;4.30;;
54460;SDS011;40371;49.414;11.010;2023-04-29T05:11:46;4.80;;;4.43;;
54460;SDS011;40371;49.414;11.010;2023-04-29T05:14:14;8.27;;;5.13;;
54460;SDS011;40371;49.414;11.010;2023-04-29T05:16:40;5.93;;;4.70;;
54460;SDS011;40371;49.414;11.010;2023-04-29T05:19:07;5.17;;;4.77;;
54460;SDS011;40371;49.414;11.010;2023-04-29T05:21:36;6.30;;;5.03;;
54460;SDS011;40371;49.414;11.010;2023-04-29T05:24:01;4.90;;;4.50;;
54460;SDS011;40371;49.414;11.010;2023-04-29T05:26:27;4.73;;;4.33;;
54460;SDS011;40371;49.414;11.010;2023-04-29T05:28:57;5.50;;;5.00;;
54460;SDS011;40371;49.414;11.010;2023-04-29T05:31:23;6.27;;;4.80;;
54460;SDS011;40371;49.414;11.010;2023-04-29T05:33:50;5.43;;;5.00;;
54460;SDS011;40371;49.414;11.010;2023-04-29T05:36:16;5.43;;;5.03;;
54460;SDS011;40371;49.414;11.010;2023-04-29T05:38:41;4.97;;;4.57;;
54460;SDS011;40371;49.414;11.010;2023-04-29T05:41:09;5.23;;;4.80;;
54460;SDS011;40371;49.414;11.010;2023-04-29T05:43:55;5.87;;;5.47;;
54460;SDS011;40371;49.414;11.010;2023-04-29T05:46:20;5.30;;;4.90;;
54460;SDS011;40371;49.414;11.010;2023-04-29T05:48:47;5.73;;;5.23;;
54460;SDS011;40371;49.414;11.010;2023-04-29T05:51:13;5.20;;;4.80;;
54460;SDS011;40371;49.414;11.010;2023-04-29T05:53:40;6.00;;;5.50;;
54460;SDS011;40371;49.414;11.010;2023-04-29T05:56:07;5.80;;;5.30;;
54460;SDS011;40371;49.414;11.010;2023-04-29T05:58:34;5.37;;;4.87;;
54460;SDS011;40371;49.414;11.010;2023-04-29T06:01:00;5.83;;;5.33;;
54460;SDS011;40371;49.414;11.010;2023-04-29T06:03:26;5.53;;;5.13;;
54460;SDS011;40371;49.414;11.010;2023-04-29T06:06:05;5.00;;;4.63;;
54460;SDS011;40371;49.414;11.010;2023-04-29T06:08:49;5.23;;;4.83;;
54460;SDS011;40371;49.414;11.010;2023-04-29T06:11:20;5.43;;;5.00;;
54460;SDS011;40371;49.414;11.010;2023-04-29T06:13:46;4.50;;;4.10;;
54460;SDS011;40371;49.414;11.010;2023-04-29T06:16:11;5.20;;;4.70;;
54460;SDS011;40371;49.414;11.010;2023-04-29T06:18:37;5.27;;;4.87;;
54460;SDS011;40371;49.414;11.010;2023-04-29T06:21:03;5.17;;;4.77;;
54460;SDS011;40371;49.414;11.010;2023-04-29T06:23:29;4.93;;;4.53;;
54460;SDS011;40371;49.414;11.010;2023-04-29T06:25:57;4.67;;;4.37;;
54460;SDS011;40371;49.414;11.010;2023-04-29T06:28:23;4.60;;;4.20;;
54460;SDS011;40371;49.414;11.010;2023-04-29T06:30:48;5.03;;;4.63;;
54460;SDS011;40371;49.414;11.010;2023-04-29T06:33:14;5.90;;;4.93;;
54460;SDS011;40371;49.414;11.010;2023-04-29T06:35:40;4.97;;;4.57;;
54460;SDS011;40371;49.414;11.010;2023-04-29T06:38:06;6.00;;;5.40;;
54460;SDS011;40371;49.414;11.010;2023-04-29T06:40:57;6.70;;;4.87;;
54460;SDS011;40371;49.414;11.010;2023-04-29T06:43:43;5.23;;;4.73;;
54460;SDS011;40371;49.414;11.010;2023-04-29T06:46:23;5.20;;;4.80;;
54460;SDS011;40371;49.414;11.010;2023-04-29T06:49:15;5.27;;;4.77;;
54460;SDS011;40371;49.414;11.010;2023-04-29T06:51:41;5.30;;;4.70;;
54460;SDS011;40371;49.414;11.010;2023-04-29T06:54:07;6.10;;;4.67;;
54460;SDS011;40371;49.414;11.010;2023-04-29T06:56:32;5.53;;;4.93;;
54460;SDS011;40371;49.414;11.010;2023-04-29T06:58:58;4.93;;;4.43;;
54460;SDS011;40371;49.414;11.010;2023-04-29T07:01:23;6.30;;;5.27;;
54460;SDS011;40371;49.414;11.010;2023-04-29T07:03:49;4.83;;;4.33;;
54460;SDS011;40371;49.414;11.010;2023-04-29T07:06:17;5.37;;;4.87;;
54460;SDS011;40371;49.414;11.010;2023-04-29T07:08:43;5.90;;;5.07;;
54460;SDS011;40371;49.414;11.010;2023-04-29T07:11:08;5.43;;;4.93;;
54460;SDS011;40371;49.414;11.010;2023-04-29T07:13:34;5.87;;;5.27;;
54460;SDS011;40371;49.414;11.010;2023-04-29T07:16:00;5.73;;;5.23;;
54460;SDS011;40371;49.414;11.010;2023-04-29T07:18:25;5.23;;;4.70;;
54460;SDS011;40371;49.414;11.010;2023-04-29T07:20:51;6.03;;;5.43;;
54460;SDS011;40371;49.414;11.010;2023-04-29T07:23:17;6.47;;;5.87;;
54460;SDS011;40371;49.414;11.010;2023-04-29T07:25:43;5.77;;;4.90;;
54460;SDS011;40371;49.414;11.010;2023-04-29T07:28:09;5.73;;;5.23;;
54460;SDS011;40371;49.414;11.010;2023-04-29T07:30:35;6.57;;;5.93;;
54460;SDS011;40371;49.414;11.010;2023-04-29T07:33:02;9.07;;;6.83;;
54460;SDS011;40371;49.414;11.010;2023-04-29T07:35:28;6.30;;;5.73;;
54460;SDS011;40371;49.414;11.010;2023-04-29T07:37:54;7.93;;;7.10;;
54460;SDS011;40371;49.414;11.010;2023-04-29T07:40:20;8.13;;;6.67;;
54460;SDS011;40371;49.414;11.010;2023-04-29T07:42:46;7.00;;;6.37;;
54460;SDS011;40371;49.414;11.010;2023-04-29T07:45:12;6.67;;;6.07;;
54460;SDS011;40371;49.414;11.010;2023-04-29T07:47:39;5.30;;;4.90;;
54460;SDS011;40371;49.414;11.010;2023-04-29T07:50:04;6.43;;;5.90;;
54460;SDS011;40371;49.414;11.010;2023-04-29T07:52:30;6.67;;;5.93;;
54460;SDS011;40371;49.414;11.010;2023-04-29T07:54:56;6.47;;;5.87;;
54460;SDS011;40371;49.414;11.010;2023-04-29T07:57:22;8.40;;;7.60;;
54460;SDS011;40371;49.414;11.010;2023-04-29T07:59:53;7.17;;;6.57;;
54460;SDS011;40371;49.414;11.010;2023-04-29T08:02:19;6.63;;;5.97;;
54460;SDS011;40371;49.414;11.010;2023-04-29T08:04:46;8.77;;;6.27;;
54460;SDS011;40371;49.414;11.010;2023-04-29T08:07:12;6.43;;;5.83;;
54460;SDS011;40371;49.414;11.010;2023-04-29T08:09:37;6.53;;;5.83;;
54460;SDS011;40371;49.414;11.010;2023-04-29T08:12:03;10.30;;;5.70;;
54460;SDS011;40371;49.414;11.010;2023-04-29T08:14:29;6.03;;;5.53;;
54460;SDS011;40371;49.414;11.010;2023-04-29T08:16:55;5.83;;;5.43;;
54460;SDS011;40371;49.414;11.010;2023-04-29T08:19:20;6.87;;;6.27;;
54460;SDS011;40371;49.414;11.010;2023-04-29T08:21:47;6.10;;;5.60;;
54460;SDS011;40371;49.414;11.010;2023-04-29T08:24:12;6.07;;;5.50;;
54460;SDS011;40371;49.414;11.010;2023-04-29T08:26:41;8.17;;;7.43;;
54460;SDS011;40371;49.414;11.010;2023-04-29T08:29:07;7.90;;;7.10;;
54460;SDS011;40371;49.414;11.010;2023-04-29T08:31:32;8.27;;;7.57;;
54460;SDS011;40371;49.414;11.010;2023-04-29T08:33:58;8.53;;;7.53;;
54460;SDS011;40371;49.414;11.010;2023-04-29T08:36:24;6.57;;;6.03;;
54460;SDS011;40371;49.414;11.010;2023-04-29T08:38:52;6.50;;;6.00;;
54460;SDS011;40371;49.414;11.010;2023-04-29T08:41:17;6.83;;;6.13;;
54460;SDS011;40371;49.414;11.010;2023-04-29T08:43:43;7.30;;;6.70;;
54460;SDS011;40371;49.414;11.010;2023-04-29T08:46:08;6.83;;;6.23;;
54460;SDS011;40371;49.414;11.010;2023-04-29T08:48:35;5.87;;;5.47;;
54460;SDS011;40371;49.414;11.010;2023-04-29T08:51:02;6.47;;;5.97;;
54460;SDS011;40371;49.414;11.010;2023-04-29T08:53:27;7.40;;;5.90;;
54460;SDS011;40371;49.414;11.010;2023-04-29T08:55:53;6.67;;;6.07;;
54460;SDS011;40371;49.414;11.010;2023-04-29T08:58:21;6.17;;;5.50;;
54460;SDS011;40371;49.414;11.010;2023-04-29T09:00:49;7.03;;;6.43;;
54460;SDS011;40371;49.414;11.010;2023-04-29T09:03:30;5.87;;;5.40;;
54460;SDS011;40371;49.414;11.010;2023-04-29T09:06:01;5.00;;;4.50;;
54460;SDS011;40371;49.414;11.010;2023-04-29T09:08:28;4.30;;;4.00;;
54460;SDS011;40371;49.414;11.010;2023-04-29T09:10:54;4.40;;;4.00;;
54460;SDS011;40371;49.414;11.010;2023-04-29T09:13:22;4.00;;;3.70;;
54460;SDS011;40371;49.414;11.010;2023-04-29T09:15:48;4.20;;;3.90;;
54460;SDS011;40371;49.414;11.010;2023-04-29T09:18:40;5.20;;;4.67;;
54460;SDS011;40371;49.414;11.010;2023-04-29T09:23:39;5.67;;;4.10;;
54460;SDS011;40371;49.414;11.010;2023-04-29T09:26:04;3.93;;;3.63;;
54460;SDS011;40371;49.414;11.010;2023-04-29T09:28:30;3.90;;;3.57;;
54460;SDS011;40371;49.414;11.010;2023-04-29T09:30:57;3.67;;;3.47;;
54460;SDS011;40371;49.414;11.010;2023-04-29T09:33:22;4.37;;;3.87;;
54460;SDS011;40371;49.414;11.010;2023-04-29T09:35:52;3.90;;;3.67;;
54460;SDS011;40371;49.414;11.010;2023-04-29T09:38:18;3.87;;;3.57;;
54460;SDS011;40371;49.414;11.010;2023-04-29T09:40:45;4.23;;;3.93;;
54460;SDS011;40371;49.414;11.010;2023-04-29T09:43:14;4.43;;;4.13;;
54460;SDS011;40371;49.414;11.010;2023-04-29T09:45:41;4.43;;;4.03;;
54460;SDS011;40371;49.414;11.010;2023-04-29T09:48:09;4.43;;;4.13;;
54460;SDS011;40371;49.414;11.010;2023-04-29T09:50:36;4.53;;;4.23;;
54460;SDS011;40371;49.414;11.010;2023-04-29T09:53:06;7.83;;;4.63;;
54460;SDS011;40371;49.414;11.010;2023-04-29T09:55:33;4.23;;;3.83;;
54460;SDS011;40371;49.414;11.010;2023-04-29T09:58:00;4.13;;;3.83;;
54460;SDS011;40371;49.414;11.010;2023-04-29T10:00:28;5.07;;;4.57;;
54460;SDS011;40371;49.414;11.010;2023-04-29T10:02:59;5.20;;;4.80;;
54460;SDS011;40371;49.414;11.010;2023-04-29T10:05:28;4.40;;;4.00;;
54460;SDS011;40371;49.414;11.010;2023-04-29T10:07:55;4.33;;;4.03;;
54460;SDS011;40371;49.414;11.010;2023-04-29T10:10:23;4.60;;;4.30;;
54460;SDS011;40371;49.414;11.010;2023-04-29T10:12:50;4.87;;;4.47;;
54460;SDS011;40371;49.414;11.010;2023-04-29T10:18:13;3.93;;;3.70;;
54460;SDS011;40371;49.414;11.010;2023-04-29T10:20:46;4.00;;;3.77;;
54460;SDS011;40371;49.414;11.010;2023-04-29T10:23:13;4.57;;;4.23;;
54460;SDS011;40371;49.414;11.010;2023-04-29T10:25:43;5.00;;;4.10;;
54460;SDS011;40371;49.414;11.010;2023-04-29T10:28:11;5.23;;;4.83;;
54460;SDS011;40371;49.414;11.010;2023-04-29T10:30:41;5.07;;;4.67;;
54460;SDS011;40371;49.414;11.010;2023-04-29T10:33:09;4.97;;;4.53;;
54460;SDS011;40371;49.414;11.010;2023-04-29T10:35:36;5.00;;;4.60;;
54460;SDS011;40371;49.414;11.010;2023-04-29T10:38:04;4.10;;;3.80;;
54460;SDS011;40371;49.414;11.010;2023-04-29T10:40:43;4.50;;;4.20;;
54460;SDS011;40371;49.414;11.010;2023-04-29T10:43:13;5.60;;;5.10;;
54460;SDS011;40371;49.414;11.010;2023-04-29T10:45:39;5.37;;;4.97;;
54460;SDS011;40371;49.414;11.010;2023-04-29T10:48:11;5.33;;;4.90;;
54460;SDS011;40371;49.414;11.010;2023-04-29T10:50:39;5.80;;;5.30;;
54460;SDS011;40371;49.414;11.010;2023-04-29T10:53:11;5.87;;;5.13;;
54460;SDS011;40371;49.414;11.010;2023-04-29T10:55:40;5.10;;;4.70;;
54460;SDS011;40371;49.414;11.010;2023-04-29T11:01:00;5.10;;;4.70;;
54460;SDS011;40371;49.414;11.010;2023-04-29T11:06:11;5.13;;;4.60;;
54460;SDS011;40371;49.414;11.010;2023-04-29T11:08:37;5.77;;;5.27;;
54460;SDS011;40371;49.414;11.010;2023-04-29T11:11:05;4.93;;;4.57;;
54460;SDS011;40371;49.414;11.010;2023-04-29T11:13:31;5.30;;;4.80;;
54460;SDS011;40371;49.414;11.010;2023-04-29T11:16:06;5.53;;;5.03;;
54460;SDS011;40371;49.414;11.010;2023-04-29T11:21:34;5.47;;;5.07;;
54460;SDS011;40371;49.414;11.010;2023-04-29T11:24:00;6.40;;;5.90;;
54460;SDS011;40371;49.414;11.010;2023-04-29T11:26:33;5.07;;;4.67;;
54460;SDS011;40371;49.414;11.010;2023-04-29T11:29:00;5.67;;;5.27;;
54460;SDS011;40371;49.414;11.010;2023-04-29T11:31:29;6.27;;;5.70;;
54460;SDS011;40371;49.414;11.010;2023-04-29T11:33:55;5.90;;;5.40;;
54460;SDS011;40371;49.414;11.010;2023-04-29T11:36:21;7.13;;;5.60;;
54460;SDS011;40371;49.414;11.010;2023-04-29T11:38:47;5.03;;;4.57;;
54460;SDS011;40371;49.414;11.010;2023-04-29T11:41:13;4.60;;;4.30;;
54460;SDS011;40371;49.414;11.010;2023-04-29T11:43:39;4.03;;;3.73;;
54460;SDS011;40371;49.414;11.010;2023-04-29T11:46:12;3.53;;;3.33;;
54460;SDS011;40371;49.414;11.010;2023-04-29T11:48:45;3.53;;;3.23;;
54460;SDS011;40371;49.414;11.010;2023-04-29T11:51:11;3.90;;;3.63;;
54460;SDS011;40371;49.414;11.010;2023-04-29T11:53:38;4.80;;;4.40;;
54460;SDS011;40371;49.414;11.010;2023-04-29T11:56:03;4.10;;;3.80;;
54460;SDS011;40371;49.414;11.010;2023-04-29T11:58:29;4.30;;;3.97;;
54460;SDS011;40371;49.414;11.010;2023-04-29T12:00:57;4.60;;;4.20;;
54460;SDS011;40371;49.414;11.010;2023-04-29T12:03:22;4.60;;;4.20;;
54460;SDS011;40371;49.414;11.010;2023-04-29T12:05:52;3.87;;;3.40;;
54460;SDS011;40371;49.414;11.010;2023-04-29T12:08:21;4.03;;;3.73;;
54460;SDS011;40371;49.414;11.010;2023-04-29T12:10:48;3.93;;;3.63;;
54460;SDS011;40371;49.414;11.010;2023-04-29T12:13:17;3.60;;;3.40;;
54460;SDS011;40371;49.414;11.010;2023-04-29T12:15:47;4.13;;;3.60;;
54460;SDS011;40371;49.414;11.010;2023-04-29T12:18:15;4.03;;;3.30;;
54460;SDS011;40371;49.414;11.010;2023-04-29T12:20:42;4.20;;;3.63;;
54460;SDS011;40371;49.414;11.010;2023-04-29T12:23:16;3.10;;;2.90;;
54460;SDS011;40371;49.414;11.010;2023-04-29T12:25:47;3.10;;;2.90;;
54460;SDS011;40371;49.414;11.010;2023-04-29T12:28:20;5.00;;;3.20;;
54460;SDS011;40371;49.414;11.010;2023-04-29T12:30:46;4.10;;;3.70;;
54460;SDS011;40371;49.414;11.010;2023-04-29T12:33:23;3.23;;;3.00;;
54460;SDS011;40371;49.414;11.010;2023-04-29T12:35:51;3.17;;;2.97;;
54460;SDS011;40371;49.414;11.010;2023-04-29T12:38:20;3.07;;;2.87;;
54460;SDS011;40371;49.414;11.010;2023-04-29T12:40:55;6.17;;;2.90;;
54460;SDS011;40371;49.414;11.010;2023-04-29T12:43:25;5.30;;;3.40;;
54460;SDS011;40371;49.414;11.010;2023-04-29T12:45:59;5.20;;;2.73;;
54460;SDS011;40371;49.414;11.010;2023-04-29T12:48:30;5.00;;;3.37;;
54460;SDS011;40371;49.414;11.010;2023-04-29T12:50:56;3.20;;;3.00;;
54460;SDS011;40371;49.414;11.010;2023-04-29T12:53:23;3.07;;;2.87;;
54460;SDS011;40371;49.414;11.010;2023-04-29T12:55:50;2.53;;;2.43;;
54460;SDS011;40371;49.414;11.010;2023-04-29T12:58:16;2.87;;;2.67;;
54460;SDS011;40371;49.414;11.010;2023-04-29T13:00:42;2.83;;;2.63;;
54460;SDS011;40371;49.414;11.010;2023-04-29T13:03:07;4.17;;;3.03;;
54460;SDS011;40371;49.414;11.010;2023-04-29T13:05:33;3.50;;;3.20;;
54460;SDS011;40371;49.414;11.010;2023-04-29T13:07:59;2.70;;;2.50;;
54460;SDS011;40371;49.414;11.010;2023-04-29T13:10:25;4.27;;;2.93;;
54460;SDS011;40371;49.414;11.010;2023-04-29T13:12:52;4.10;;;2.70;;
54460;SDS011;40371;49.414;11.010;2023-04-29T13:15:18;4.33;;;2.53;;
54460;SDS011;40371;49.414;11.010;2023-04-29T13:17:45;2.93;;;2.60;;
54460;SDS011;40371;49.414;11.010;2023-04-29T13:20:11;5.10;;;2.70;;
54460;SDS011;40371;49.414;11.010;2023-04-29T13:22:37;3.27;;;2.57;;
54460;SDS011;40371;49.414;11.010;2023-04-29T13:25:03;2.27;;;2.17;;
54460;SDS011;40371;49.414;11.010;2023-04-29T13:27:29;2.47;;;2.30;;
54460;SDS011;40371;49.414;11.010;2023-04-29T13:29:55;2.63;;;2.47;;
54460;SDS011;40371;49.414;11.010;2023-04-29T13:32:21;2.70;;;2.50;;
54460;SDS011;40371;49.414;11.010;2023-04-29T13:34:51;2.90;;;2.70;;
54460;SDS011;40371;49.414;11.010;2023-04-29T13:37:16;2.70;;;2.50;;
54460;SDS011;40371;49.414;11.010;2023-04-29T13:39:43;3.00;;;2.80;;
54460;SDS011;40371;49.414;11.010;2023-04-29T13:42:09;3.20;;;2.40;;
54460;SDS011;40371;49.414;11.010;2023-04-29T13:44:35;3.00;;;2.60;;
54460;SDS011;40371;49.414;11.010;2023-04-29T13:47:01;2.80;;;2.60;;
54460;SDS011;40371;49.414;11.010;2023-04-29T13:49:28;2.73;;;2.53;;
54460;SDS011;40371;49.414;11.010;2023-04-29T13:51:53;2.70;;;2.50;;
54460;SDS011;40371;49.414;11.010;2023-04-29T13:54:19;2.47;;;2.27;;
54460;SDS011;40371;49.414;11.010;2023-04-29T13:56:48;2.93;;;2.10;;
54460;SDS011;40371;49.414;11.010;2023-04-29T13:59:13;2.47;;;2.27;;
54460;SDS011;40371;49.414;11.010;2023-04-29T14:01:39;2.43;;;2.27;;
54460;SDS011;40371;49.414;11.010;2023-04-29T14:04:05;2.50;;;2.30;;
54460;SDS011;40371;49.414;11.010;2023-04-29T14:06:32;2.20;;;2.10;;
54460;SDS011;40371;49.414;11.010;2023-04-29T14:08:58;4.00;;;2.30;;
54460;SDS011;40371;49.414;11.010;2023-04-29T14:11:24;6.03;;;2.00;;
54460;SDS011;40371;49.414;11.010;2023-04-29T14:13:49;2.33;;;1.80;;
54460;SDS011;40371;49.414;11.010;2023-04-29T14:16:15;16.23;;;8.90;;
54460;SDS011;40371;49.414;11.010;2023-04-29T14:18:41;6.47;;;4.63;;
54460;SDS011;40371;49.414;11.010;2023-04-29T14:21:07;3.00;;;2.80;;
54460;SDS011;40371;49.414;11.010;2023-04-29T14:23:33;2.97;;;2.77;;
54460;SDS011;40371;49.414;11.010;2023-04-29T14:25:58;6.47;;;3.73;;
54460;SDS011;40371;49.414;11.010;2023-04-29T14:28:24;2.10;;;1.90;;
54460;SDS011;40371;49.414;11.010;2023-04-29T14:30:49;2.70;;;2.10;;
54460;SDS011;40371;49.414;11.010;2023-04-29T14:33:15;2.13;;;1.93;;
54460;SDS011;40371;49.414;11.010;2023-04-29T14:35:40;5.33;;;2.20;;
54460;SDS011;40371;49.414;11.010;2023-04-29T14:38:06;2.93;;;2.07;;
54460;SDS011;40371;49.414;11.010;2023-04-29T14:40:32;2.17;;;2.00;;
54460;SDS011;40371;49.414;11.010;2023-04-29T14:42:57;3.93;;;2.80;;
54460;SDS011;40371;49.414;11.010;2023-04-29T14:45:23;2.73;;;2.27;;
54460;SDS011;40371;49.414;11.010;2023-04-29T14:47:48;2.10;;;2.00;;
54460;SDS011;40371;49.414;11.010;2023-04-29T14:50:14;3.73;;;1.63;;
54460;SDS011;40371;49.414;11.010;2023-04-29T14:52:40;6.80;;;2.57;;
54460;SDS011;40371;49.414;11.010;2023-04-29T14:55:06;3.13;;;2.47;;
54460;SDS011;40371;49.414;11.010;2023-04-29T14:57:33;2.10;;;1.90;;
54460;SDS011;40371;49.414;11.010;2023-04-29T14:59:58;3.20;;;1.97;;
54460;SDS011;40371;49.414;11.010;2023-04-29T15:02:24;2.70;;;2.50;;